sensor_id;sensor_type;location;lat;lon;timestamp;P1;durP1;ratioP1;P2;durP2;ratioP2
15358;SDS011;7779;49.596;11.070;2023-02-15T00:01:39;5.97;;;4.80;;
15358;SDS011;7779;49.596;11.070;2023-02-15T00:04:06;6.00;;;5.03;;
15358;SDS011;7779;49.596;11.070;2023-02-15T00:06:32;6.37;;;4.83;;
15358;SDS011;7779;49.596;11.070;2023-02-15T00:08:59;5.37;;;4.80;;
15358;SDS011;7779;49.596;11.070;2023-02-15T00:11:25;6.70;;;5.03;;
15358;SDS011;7779;49.596;11.070;2023-02-15T00:14:08;5.93;;;4.87;;
15358;SDS011;7779;49.596;11.070;2023-02-15T00:16:36;6.47;;;4.80;;
15358;SDS011;7779;49.596;11.070;2023-02-15T00:19:02;6.07;;;5.07;;
15358;SDS011;7779;49.596;11.070;2023-02-15T00:21:29;6.67;;;5.43;;
15358;SDS011;7779;49.596;11.070;2023-02-15T00:23:57;5.67;;;4.80;;
15358;SDS011;7779;49.596;11.070;2023-02-15T00:26:25;6.73;;;5.20;;
15358;SDS011;7779;49.596;11.070;2023-02-15T00:28:51;7.03;;;5.30;;
15358;SDS011;7779;49.596;11.070;2023-02-15T00:31:18;6.00;;;5.07;;
15358;SDS011;7779;49.596;11.070;2023-02-15T00:33:45;7.63;;;5.43;;
15358;SDS011;7779;49.596;11.070;2023-02-15T00:36:11;8.00;;;5.30;;
15358;SDS011;7779;49.596;11.070;2023-02-15T00:38:37;6.63;;;5.60;;
15358;SDS011;7779;49.596;11.070;2023-02-15T00:41:04;8.00;;;6.13;;
15358;SDS011;7779;49.596;11.070;2023-02-15T00:43:33;6.90;;;5.37;;
15358;SDS011;7779;49.596;11.070;2023-02-15T00:46:00;7.07;;;5.40;;
15358;SDS011;7779;49.596;11.070;2023-02-15T00:48:27;8.90;;;5.93;;
15358;SDS011;7779;49.596;11.070;2023-02-15T00:50:53;7.77;;;6.13;;
15358;SDS011;7779;49.596;11.070;2023-02-15T00:53:22;8.03;;;5.93;;
15358;SDS011;7779;49.596;11.070;2023-02-15T00:55:49;8.40;;;6.40;;
15358;SDS011;7779;49.596;11.070;2023-02-15T00:58:15;7.50;;;5.87;;
15358;SDS011;7779;49.596;11.070;2023-02-15T01:00:42;9.00;;;6.10;;
15358;SDS011;7779;49.596;11.070;2023-02-15T01:03:11;7.00;;;5.60;;
15358;SDS011;7779;49.596;11.070;2023-02-15T01:05:38;6.60;;;5.57;;
15358;SDS011;7779;49.596;11.070;2023-02-15T01:08:04;8.03;;;6.00;;
15358;SDS011;7779;49.596;11.070;2023-02-15T01:10:31;8.70;;;6.47;;
15358;SDS011;7779;49.596;11.070;2023-02-15T01:12:58;7.17;;;5.43;;
15358;SDS011;7779;49.596;11.070;2023-02-15T01:15:25;7.10;;;5.57;;
15358;SDS011;7779;49.596;11.070;2023-02-15T01:17:51;6.87;;;5.47;;
15358;SDS011;7779;49.596;11.070;2023-02-15T01:20:20;7.57;;;5.60;;
15358;SDS011;7779;49.596;11.070;2023-02-15T01:22:53;7.23;;;5.23;;
15358;SDS011;7779;49.596;11.070;2023-02-15T01:25:22;7.97;;;5.67;;
15358;SDS011;7779;49.596;11.070;2023-02-15T01:27:50;6.57;;;5.07;;
15358;SDS011;7779;49.596;11.070;2023-02-15T01:30:15;7.10;;;5.67;;
15358;SDS011;7779;49.596;11.070;2023-02-15T01:32:42;7.53;;;5.87;;
15358;SDS011;7779;49.596;11.070;2023-02-15T01:35:08;7.83;;;6.17;;
15358;SDS011;7779;49.596;11.070;2023-02-15T01:37:35;8.07;;;6.37;;
15358;SDS011;7779;49.596;11.070;2023-02-15T01:40:03;7.17;;;5.67;;
15358;SDS011;7779;49.596;11.070;2023-02-15T01:42:34;8.10;;;6.10;;
15358;SDS011;7779;49.596;11.070;2023-02-15T01:45:01;8.20;;;6.57;;
15358;SDS011;7779;49.596;11.070;2023-02-15T01:47:56;8.20;;;6.43;;
15358;SDS011;7779;49.596;11.070;2023-02-15T01:50:30;7.23;;;5.50;;
15358;SDS011;7779;49.596;11.070;2023-02-15T01:56:07;7.03;;;5.47;;
15358;SDS011;7779;49.596;11.070;2023-02-15T01:58:38;7.73;;;5.37;;
15358;SDS011;7779;49.596;11.070;2023-02-15T02:01:04;7.63;;;6.10;;
15358;SDS011;7779;49.596;11.070;2023-02-15T02:06:38;7.27;;;5.93;;
15358;SDS011;7779;49.596;11.070;2023-02-15T02:09:05;7.63;;;5.80;;
15358;SDS011;7779;49.596;11.070;2023-02-15T02:11:31;7.13;;;5.20;;
15358;SDS011;7779;49.596;11.070;2023-02-15T02:13:58;6.30;;;5.03;;
15358;SDS011;7779;49.596;11.070;2023-02-15T02:16:39;7.40;;;6.10;;
15358;SDS011;7779;49.596;11.070;2023-02-15T02:27:56;6.97;;;5.23;;
15358;SDS011;7779;49.596;11.070;2023-02-15T02:34:29;6.20;;;4.80;;
15358;SDS011;7779;49.596;11.070;2023-02-15T02:43:01;6.90;;;4.97;;
15358;SDS011;7779;49.596;11.070;2023-02-15T02:45:53;7.30;;;5.37;;
15358;SDS011;7779;49.596;11.070;2023-02-15T02:48:27;6.93;;;5.47;;
15358;SDS011;7779;49.596;11.070;2023-02-15T02:50:58;6.37;;;4.77;;
15358;SDS011;7779;49.596;11.070;2023-02-15T02:53:24;6.57;;;5.23;;
15358;SDS011;7779;49.596;11.070;2023-02-15T02:55:52;6.90;;;5.47;;
15358;SDS011;7779;49.596;11.070;2023-02-15T02:58:58;7.30;;;5.17;;
15358;SDS011;7779;49.596;11.070;2023-02-15T03:01:30;6.67;;;4.93;;
15358;SDS011;7779;49.596;11.070;2023-02-15T03:04:05;6.33;;;5.23;;
15358;SDS011;7779;49.596;11.070;2023-02-15T03:09:12;6.33;;;5.17;;
15358;SDS011;7779;49.596;11.070;2023-02-15T03:11:46;7.57;;;5.63;;
15358;SDS011;7779;49.596;11.070;2023-02-15T03:14:14;8.50;;;5.60;;
15358;SDS011;7779;49.596;11.070;2023-02-15T03:16:45;6.43;;;5.37;;
15358;SDS011;7779;49.596;11.070;2023-02-15T03:19:15;7.00;;;5.70;;
15358;SDS011;7779;49.596;11.070;2023-02-15T03:21:56;6.37;;;5.30;;
15358;SDS011;7779;49.596;11.070;2023-02-15T03:24:44;6.97;;;5.77;;
15358;SDS011;7779;49.596;11.070;2023-02-15T03:27:22;6.27;;;5.47;;
15358;SDS011;7779;49.596;11.070;2023-02-15T03:29:56;9.37;;;6.37;;
15358;SDS011;7779;49.596;11.070;2023-02-15T03:32:25;7.77;;;5.63;;
15358;SDS011;7779;49.596;11.070;2023-02-15T03:34:55;5.60;;;4.87;;
15358;SDS011;7779;49.596;11.070;2023-02-15T03:39:59;6.67;;;5.07;;
15358;SDS011;7779;49.596;11.070;2023-02-15T03:42:58;6.60;;;5.17;;
15358;SDS011;7779;49.596;11.070;2023-02-15T03:45:37;7.00;;;5.20;;
15358;SDS011;7779;49.596;11.070;2023-02-15T03:48:20;7.70;;;5.70;;
15358;SDS011;7779;49.596;11.070;2023-02-15T03:50:52;7.53;;;5.80;;
15358;SDS011;7779;49.596;11.070;2023-02-15T03:53:42;7.17;;;5.70;;
15358;SDS011;7779;49.596;11.070;2023-02-15T03:56:11;7.73;;;5.57;;
15358;SDS011;7779;49.596;11.070;2023-02-15T03:58:37;7.17;;;5.70;;
15358;SDS011;7779;49.596;11.070;2023-02-15T04:01:34;6.93;;;5.53;;
15358;SDS011;7779;49.596;11.070;2023-02-15T04:04:22;7.03;;;5.20;;
15358;SDS011;7779;49.596;11.070;2023-02-15T04:07:11;6.77;;;5.40;;
15358;SDS011;7779;49.596;11.070;2023-02-15T04:09:37;6.27;;;5.50;;
15358;SDS011;7779;49.596;11.070;2023-02-15T04:12:21;7.10;;;5.27;;
15358;SDS011;7779;49.596;11.070;2023-02-15T04:14:47;7.27;;;5.33;;
15358;SDS011;7779;49.596;11.070;2023-02-15T04:17:32;6.47;;;5.47;;
15358;SDS011;7779;49.596;11.070;2023-02-15T04:19:57;7.10;;;5.13;;
15358;SDS011;7779;49.596;11.070;2023-02-15T04:22:41;7.93;;;6.00;;
15358;SDS011;7779;49.596;11.070;2023-02-15T04:25:26;6.77;;;5.43;;
15358;SDS011;7779;49.596;11.070;2023-02-15T04:27:52;7.13;;;5.83;;
15358;SDS011;7779;49.596;11.070;2023-02-15T04:30:24;7.40;;;5.43;;
15358;SDS011;7779;49.596;11.070;2023-02-15T04:32:50;8.30;;;5.80;;
15358;SDS011;7779;49.596;11.070;2023-02-15T04:35:17;6.83;;;5.47;;
15358;SDS011;7779;49.596;11.070;2023-02-15T04:37:43;7.43;;;6.00;;
15358;SDS011;7779;49.596;11.070;2023-02-15T04:40:10;8.03;;;6.17;;
15358;SDS011;7779;49.596;11.070;2023-02-15T04:42:38;6.93;;;5.43;;
15358;SDS011;7779;49.596;11.070;2023-02-15T04:45:04;8.67;;;6.63;;
15358;SDS011;7779;49.596;11.070;2023-02-15T04:47:31;8.77;;;6.23;;
15358;SDS011;7779;49.596;11.070;2023-02-15T04:49:57;7.53;;;5.77;;
15358;SDS011;7779;49.596;11.070;2023-02-15T04:52:22;8.13;;;6.53;;
15358;SDS011;7779;49.596;11.070;2023-02-15T04:54:48;8.27;;;6.43;;
15358;SDS011;7779;49.596;11.070;2023-02-15T04:57:14;7.90;;;6.40;;
15358;SDS011;7779;49.596;11.070;2023-02-15T04:59:40;7.23;;;5.80;;
15358;SDS011;7779;49.596;11.070;2023-02-15T05:02:06;8.83;;;6.80;;
15358;SDS011;7779;49.596;11.070;2023-02-15T05:04:31;10.37;;;7.57;;
15358;SDS011;7779;49.596;11.070;2023-02-15T05:06:57;8.60;;;6.67;;
15358;SDS011;7779;49.596;11.070;2023-02-15T05:09:23;9.37;;;7.50;;
15358;SDS011;7779;49.596;11.070;2023-02-15T05:11:48;8.50;;;7.23;;
15358;SDS011;7779;49.596;11.070;2023-02-15T05:14:14;8.57;;;6.23;;
15358;SDS011;7779;49.596;11.070;2023-02-15T05:16:40;8.70;;;6.17;;
15358;SDS011;7779;49.596;11.070;2023-02-15T05:19:05;9.70;;;7.27;;
15358;SDS011;7779;49.596;11.070;2023-02-15T05:21:32;8.77;;;6.63;;
15358;SDS011;7779;49.596;11.070;2023-02-15T05:23:58;8.50;;;6.17;;
15358;SDS011;7779;49.596;11.070;2023-02-15T05:26:24;7.63;;;6.00;;
15358;SDS011;7779;49.596;11.070;2023-02-15T05:29:09;8.90;;;6.60;;
15358;SDS011;7779;49.596;11.070;2023-02-15T05:31:35;9.57;;;6.93;;
15358;SDS011;7779;49.596;11.070;2023-02-15T05:34:02;9.77;;;7.00;;
15358;SDS011;7779;49.596;11.070;2023-02-15T05:36:28;9.83;;;6.43;;
15358;SDS011;7779;49.596;11.070;2023-02-15T05:38:54;8.93;;;6.33;;
15358;SDS011;7779;49.596;11.070;2023-02-15T05:41:20;9.70;;;6.63;;
15358;SDS011;7779;49.596;11.070;2023-02-15T05:43:46;9.33;;;6.87;;
15358;SDS011;7779;49.596;11.070;2023-02-15T05:46:13;8.70;;;6.70;;
15358;SDS011;7779;49.596;11.070;2023-02-15T05:48:38;8.57;;;7.00;;
15358;SDS011;7779;49.596;11.070;2023-02-15T05:51:05;8.47;;;6.13;;
15358;SDS011;7779;49.596;11.070;2023-02-15T05:53:35;10.70;;;7.13;;
15358;SDS011;7779;49.596;11.070;2023-02-15T05:56:03;9.07;;;6.50;;
15358;SDS011;7779;49.596;11.070;2023-02-15T05:58:32;8.67;;;6.67;;
15358;SDS011;7779;49.596;11.070;2023-02-15T06:01:10;9.10;;;6.60;;
15358;SDS011;7779;49.596;11.070;2023-02-15T06:03:44;8.53;;;6.47;;
15358;SDS011;7779;49.596;11.070;2023-02-15T06:06:10;8.67;;;6.33;;
15358;SDS011;7779;49.596;11.070;2023-02-15T06:08:37;8.87;;;6.57;;
15358;SDS011;7779;49.596;11.070;2023-02-15T06:11:04;8.73;;;6.73;;
15358;SDS011;7779;49.596;11.070;2023-02-15T06:13:31;8.93;;;6.90;;
15358;SDS011;7779;49.596;11.070;2023-02-15T06:15:58;8.33;;;6.20;;
15358;SDS011;7779;49.596;11.070;2023-02-15T06:18:24;10.23;;;7.10;;
15358;SDS011;7779;49.596;11.070;2023-02-15T06:20:50;9.70;;;7.50;;
15358;SDS011;7779;49.596;11.070;2023-02-15T06:23:16;9.17;;;6.87;;
15358;SDS011;7779;49.596;11.070;2023-02-15T06:25:43;11.80;;;7.20;;
15358;SDS011;7779;49.596;11.070;2023-02-15T06:28:11;9.20;;;6.80;;
15358;SDS011;7779;49.596;11.070;2023-02-15T06:30:36;10.53;;;7.60;;
15358;SDS011;7779;49.596;11.070;2023-02-15T06:33:02;10.20;;;7.70;;
15358;SDS011;7779;49.596;11.070;2023-02-15T06:35:28;11.20;;;8.43;;
15358;SDS011;7779;49.596;11.070;2023-02-15T06:37:53;10.03;;;7.13;;
15358;SDS011;7779;49.596;11.070;2023-02-15T06:40:19;9.03;;;7.23;;
15358;SDS011;7779;49.596;11.070;2023-02-15T06:42:45;10.43;;;7.67;;
15358;SDS011;7779;49.596;11.070;2023-02-15T06:45:10;10.77;;;8.20;;
15358;SDS011;7779;49.596;11.070;2023-02-15T06:47:36;9.83;;;7.13;;
15358;SDS011;7779;49.596;11.070;2023-02-15T06:50:03;10.20;;;7.77;;
15358;SDS011;7779;49.596;11.070;2023-02-15T06:52:31;10.60;;;8.40;;
15358;SDS011;7779;49.596;11.070;2023-02-15T06:54:57;9.43;;;7.17;;
15358;SDS011;7779;49.596;11.070;2023-02-15T06:57:22;12.13;;;7.93;;
15358;SDS011;7779;49.596;11.070;2023-02-15T06:59:48;10.27;;;7.33;;
15358;SDS011;7779;49.596;11.070;2023-02-15T07:02:14;10.50;;;7.83;;
15358;SDS011;7779;49.596;11.070;2023-02-15T07:04:40;9.20;;;7.23;;
15358;SDS011;7779;49.596;11.070;2023-02-15T07:07:09;9.90;;;7.33;;
15358;SDS011;7779;49.596;11.070;2023-02-15T07:09:37;11.00;;;7.87;;
15358;SDS011;7779;49.596;11.070;2023-02-15T07:12:03;10.40;;;8.03;;
15358;SDS011;7779;49.596;11.070;2023-02-15T07:14:49;11.53;;;8.67;;
15358;SDS011;7779;49.596;11.070;2023-02-15T07:17:14;13.00;;;8.67;;
15358;SDS011;7779;49.596;11.070;2023-02-15T07:19:41;10.43;;;7.63;;
15358;SDS011;7779;49.596;11.070;2023-02-15T07:22:06;9.80;;;7.50;;
15358;SDS011;7779;49.596;11.070;2023-02-15T07:24:32;10.23;;;7.90;;
15358;SDS011;7779;49.596;11.070;2023-02-15T07:26:58;10.80;;;7.80;;
15358;SDS011;7779;49.596;11.070;2023-02-15T07:29:23;10.00;;;7.70;;
15358;SDS011;7779;49.596;11.070;2023-02-15T07:31:49;10.83;;;8.23;;
15358;SDS011;7779;49.596;11.070;2023-02-15T07:34:15;12.50;;;8.93;;
15358;SDS011;7779;49.596;11.070;2023-02-15T07:36:41;11.90;;;8.33;;
15358;SDS011;7779;49.596;11.070;2023-02-15T07:39:09;11.57;;;9.00;;
15358;SDS011;7779;49.596;11.070;2023-02-15T07:41:35;11.70;;;8.30;;
15358;SDS011;7779;49.596;11.070;2023-02-15T07:44:13;11.57;;;8.17;;
15358;SDS011;7779;49.596;11.070;2023-02-15T07:46:39;13.20;;;8.80;;
15358;SDS011;7779;49.596;11.070;2023-02-15T07:49:06;14.00;;;9.07;;
15358;SDS011;7779;49.596;11.070;2023-02-15T07:51:32;12.03;;;9.10;;
15358;SDS011;7779;49.596;11.070;2023-02-15T07:53:58;11.77;;;8.97;;
15358;SDS011;7779;49.596;11.070;2023-02-15T07:56:23;11.73;;;8.03;;
15358;SDS011;7779;49.596;11.070;2023-02-15T07:58:49;11.87;;;8.53;;
15358;SDS011;7779;49.596;11.070;2023-02-15T08:01:18;11.53;;;8.50;;
15358;SDS011;7779;49.596;11.070;2023-02-15T08:03:55;13.10;;;9.13;;
15358;SDS011;7779;49.596;11.070;2023-02-15T08:06:22;11.57;;;9.17;;
15358;SDS011;7779;49.596;11.070;2023-02-15T08:08:50;13.20;;;9.67;;
15358;SDS011;7779;49.596;11.070;2023-02-15T08:13:53;15.63;;;9.50;;
15358;SDS011;7779;49.596;11.070;2023-02-15T08:16:32;13.50;;;9.83;;
15358;SDS011;7779;49.596;11.070;2023-02-15T08:19:20;13.80;;;9.77;;
15358;SDS011;7779;49.596;11.070;2023-02-15T08:21:58;14.37;;;10.23;;
15358;SDS011;7779;49.596;11.070;2023-02-15T08:24:32;14.73;;;10.63;;
15358;SDS011;7779;49.596;11.070;2023-02-15T08:27:04;15.27;;;9.63;;
15358;SDS011;7779;49.596;11.070;2023-02-15T08:29:31;12.97;;;9.90;;
15358;SDS011;7779;49.596;11.070;2023-02-15T08:32:03;14.17;;;10.47;;
15358;SDS011;7779;49.596;11.070;2023-02-15T08:34:35;14.23;;;10.87;;
15358;SDS011;7779;49.596;11.070;2023-02-15T08:37:04;14.07;;;10.57;;
15358;SDS011;7779;49.596;11.070;2023-02-15T08:39:30;16.90;;;11.87;;
15358;SDS011;7779;49.596;11.070;2023-02-15T08:41:57;13.67;;;10.10;;
15358;SDS011;7779;49.596;11.070;2023-02-15T08:44:23;13.90;;;10.03;;
15358;SDS011;7779;49.596;11.070;2023-02-15T08:46:49;14.90;;;10.60;;
15358;SDS011;7779;49.596;11.070;2023-02-15T08:49:16;15.27;;;10.87;;
15358;SDS011;7779;49.596;11.070;2023-02-15T08:51:45;13.13;;;10.20;;
15358;SDS011;7779;49.596;11.070;2023-02-15T08:54:13;14.03;;;10.53;;
15358;SDS011;7779;49.596;11.070;2023-02-15T08:56:43;13.13;;;9.93;;
15358;SDS011;7779;49.596;11.070;2023-02-15T08:59:17;12.50;;;9.77;;
15358;SDS011;7779;49.596;11.070;2023-02-15T09:01:46;14.27;;;10.70;;
15358;SDS011;7779;49.596;11.070;2023-02-15T09:04:15;13.77;;;10.10;;
15358;SDS011;7779;49.596;11.070;2023-02-15T09:06:41;13.37;;;9.73;;
15358;SDS011;7779;49.596;11.070;2023-02-15T09:09:09;12.73;;;8.77;;
15358;SDS011;7779;49.596;11.070;2023-02-15T09:11:37;12.13;;;9.60;;
15358;SDS011;7779;49.596;11.070;2023-02-15T09:14:08;14.10;;;10.63;;
15358;SDS011;7779;49.596;11.070;2023-02-15T09:16:39;13.70;;;9.90;;
15358;SDS011;7779;49.596;11.070;2023-02-15T09:19:07;14.10;;;10.33;;
15358;SDS011;7779;49.596;11.070;2023-02-15T09:21:34;15.47;;;10.67;;
15358;SDS011;7779;49.596;11.070;2023-02-15T09:24:04;14.57;;;11.10;;
15358;SDS011;7779;49.596;11.070;2023-02-15T09:26:34;13.77;;;10.13;;
15358;SDS011;7779;49.596;11.070;2023-02-15T09:29:04;14.03;;;10.60;;
15358;SDS011;7779;49.596;11.070;2023-02-15T09:31:30;12.87;;;9.43;;
15358;SDS011;7779;49.596;11.070;2023-02-15T09:33:59;12.03;;;9.80;;
15358;SDS011;7779;49.596;11.070;2023-02-15T09:36:31;13.47;;;9.63;;
15358;SDS011;7779;49.596;11.070;2023-02-15T09:39:08;13.10;;;9.80;;
15358;SDS011;7779;49.596;11.070;2023-02-15T09:42:10;11.53;;;8.80;;
15358;SDS011;7779;49.596;11.070;2023-02-15T09:54:08;11.33;;;8.73;;
15358;SDS011;7779;49.596;11.070;2023-02-15T09:56:58;11.23;;;8.83;;
15358;SDS011;7779;49.596;11.070;2023-02-15T09:59:42;11.77;;;9.43;;
15358;SDS011;7779;49.596;11.070;2023-02-15T10:02:24;12.47;;;8.77;;
15358;SDS011;7779;49.596;11.070;2023-02-15T10:05:27;11.70;;;8.47;;
15358;SDS011;7779;49.596;11.070;2023-02-15T10:28:06;11.00;;;7.77;;
15358;SDS011;7779;49.596;11.070;2023-02-15T10:33:26;9.67;;;7.60;;
15358;SDS011;7779;49.596;11.070;2023-02-15T10:39:06;8.83;;;7.13;;
15358;SDS011;7779;49.596;11.070;2023-02-15T10:48:02;7.87;;;6.50;;
15358;SDS011;7779;49.596;11.070;2023-02-15T10:51:02;8.03;;;6.23;;
15358;SDS011;7779;49.596;11.070;2023-02-15T10:53:55;9.93;;;7.67;;
15358;SDS011;7779;49.596;11.070;2023-02-15T10:56:36;8.40;;;6.57;;
15358;SDS011;7779;49.596;11.070;2023-02-15T11:07:47;7.87;;;6.67;;
15358;SDS011;7779;49.596;11.070;2023-02-15T11:13:09;7.73;;;6.33;;
15358;SDS011;7779;49.596;11.070;2023-02-15T11:15:41;7.47;;;5.93;;
15358;SDS011;7779;49.596;11.070;2023-02-15T11:20:56;7.57;;;5.43;;
15358;SDS011;7779;49.596;11.070;2023-02-15T11:23:52;6.47;;;5.17;;
15358;SDS011;7779;49.596;11.070;2023-02-15T11:26:33;6.13;;;5.03;;
15358;SDS011;7779;49.596;11.070;2023-02-15T11:29:13;6.40;;;5.30;;
15358;SDS011;7779;49.596;11.070;2023-02-15T11:31:56;7.83;;;5.87;;
15358;SDS011;7779;49.596;11.070;2023-02-15T11:37:01;7.07;;;5.20;;
15358;SDS011;7779;49.596;11.070;2023-02-15T11:39:35;7.23;;;5.70;;
15358;SDS011;7779;49.596;11.070;2023-02-15T11:42:10;7.23;;;5.73;;
15358;SDS011;7779;49.596;11.070;2023-02-15T11:44:46;7.43;;;5.53;;
15358;SDS011;7779;49.596;11.070;2023-02-15T11:47:48;11.20;;;5.10;;
15358;SDS011;7779;49.596;11.070;2023-02-15T11:50:15;7.03;;;5.43;;
15358;SDS011;7779;49.596;11.070;2023-02-15T11:52:47;6.23;;;5.03;;
15358;SDS011;7779;49.596;11.070;2023-02-15T11:55:21;7.57;;;5.37;;
15358;SDS011;7779;49.596;11.070;2023-02-15T11:58:02;7.30;;;5.33;;
15358;SDS011;7779;49.596;11.070;2023-02-15T12:00:51;7.77;;;5.37;;
15358;SDS011;7779;49.596;11.070;2023-02-15T12:03:28;6.40;;;5.50;;
15358;SDS011;7779;49.596;11.070;2023-02-15T12:06:15;7.33;;;5.13;;
15358;SDS011;7779;49.596;11.070;2023-02-15T12:09:06;5.90;;;4.90;;
15358;SDS011;7779;49.596;11.070;2023-02-15T12:14:52;9.87;;;5.20;;
15358;SDS011;7779;49.596;11.070;2023-02-15T12:17:21;8.67;;;5.90;;
15358;SDS011;7779;49.596;11.070;2023-02-15T12:19:52;13.13;;;5.73;;
15358;SDS011;7779;49.596;11.070;2023-02-15T12:22:27;7.20;;;5.47;;
15358;SDS011;7779;49.596;11.070;2023-02-15T12:24:58;6.77;;;5.43;;
15358;SDS011;7779;49.596;11.070;2023-02-15T12:27:28;6.60;;;5.27;;
15358;SDS011;7779;49.596;11.070;2023-02-15T12:29:58;6.10;;;5.10;;
15358;SDS011;7779;49.596;11.070;2023-02-15T12:32:49;6.70;;;5.23;;
15358;SDS011;7779;49.596;11.070;2023-02-15T12:35:27;9.47;;;6.30;;
15358;SDS011;7779;49.596;11.070;2023-02-15T12:38:42;6.97;;;5.40;;
15358;SDS011;7779;49.596;11.070;2023-02-15T12:40:42;6.67;;;5.53;;
15358;SDS011;7779;49.596;11.070;2023-02-15T12:43:31;6.73;;;5.50;;
15358;SDS011;7779;49.596;11.070;2023-02-15T12:49:14;6.10;;;5.13;;
15358;SDS011;7779;49.596;11.070;2023-02-15T12:56:49;6.33;;;5.50;;
15358;SDS011;7779;49.596;11.070;2023-02-15T12:59:15;8.00;;;6.33;;
15358;SDS011;7779;49.596;11.070;2023-02-15T13:01:42;8.63;;;6.33;;
15358;SDS011;7779;49.596;11.070;2023-02-15T13:04:20;8.53;;;6.23;;
15358;SDS011;7779;49.596;11.070;2023-02-15T13:06:52;7.80;;;6.10;;
15358;SDS011;7779;49.596;11.070;2023-02-15T13:09:34;8.83;;;5.80;;
15358;SDS011;7779;49.596;11.070;2023-02-15T13:12:23;6.93;;;5.37;;
15358;SDS011;7779;49.596;11.070;2023-02-15T13:14:52;8.70;;;6.40;;
15358;SDS011;7779;49.596;11.070;2023-02-15T13:17:21;6.93;;;5.87;;
15358;SDS011;7779;49.596;11.070;2023-02-15T13:19:54;7.17;;;5.93;;
15358;SDS011;7779;49.596;11.070;2023-02-15T13:25:29;8.37;;;5.90;;
15358;SDS011;7779;49.596;11.070;2023-02-15T13:28:00;6.97;;;5.83;;
15358;SDS011;7779;49.596;11.070;2023-02-15T13:30:35;7.40;;;6.20;;
15358;SDS011;7779;49.596;11.070;2023-02-15T13:33:15;7.40;;;5.87;;
15358;SDS011;7779;49.596;11.070;2023-02-15T13:38:57;7.33;;;6.47;;
15358;SDS011;7779;49.596;11.070;2023-02-15T13:51:21;8.90;;;6.53;;
15358;SDS011;7779;49.596;11.070;2023-02-15T14:12:37;9.73;;;8.23;;
15358;SDS011;7779;49.596;11.070;2023-02-15T14:15:43;10.80;;;7.80;;
15358;SDS011;7779;49.596;11.070;2023-02-15T14:20:57;11.70;;;8.87;;
15358;SDS011;7779;49.596;11.070;2023-02-15T14:24:00;11.30;;;8.50;;
15358;SDS011;7779;49.596;11.070;2023-02-15T14:32:36;12.73;;;8.67;;
15358;SDS011;7779;49.596;11.070;2023-02-15T14:35:13;9.77;;;8.57;;
15358;SDS011;7779;49.596;11.070;2023-02-15T14:43:37;10.53;;;8.60;;
15358;SDS011;7779;49.596;11.070;2023-02-15T14:52:11;12.40;;;9.23;;
15358;SDS011;7779;49.596;11.070;2023-02-15T15:02:39;13.40;;;10.23;;
15358;SDS011;7779;49.596;11.070;2023-02-15T15:07:54;12.57;;;9.67;;
15358;SDS011;7779;49.596;11.070;2023-02-15T15:15:56;13.57;;;9.93;;
15358;SDS011;7779;49.596;11.070;2023-02-15T15:19:00;12.60;;;10.40;;
15358;SDS011;7779;49.596;11.070;2023-02-15T15:32:38;14.87;;;10.97;;
15358;SDS011;7779;49.596;11.070;2023-02-15T15:38:09;17.00;;;11.33;;
15358;SDS011;7779;49.596;11.070;2023-02-15T15:47:30;15.47;;;10.43;;
15358;SDS011;7779;49.596;11.070;2023-02-15T15:50:14;15.33;;;10.90;;
15358;SDS011;7779;49.596;11.070;2023-02-15T15:52:50;16.47;;;11.17;;
15358;SDS011;7779;49.596;11.070;2023-02-15T15:55:20;14.13;;;11.27;;
15358;SDS011;7779;49.596;11.070;2023-02-15T15:57:53;13.43;;;11.50;;
15358;SDS011;7779;49.596;11.070;2023-02-15T16:00:44;17.07;;;11.10;;
15358;SDS011;7779;49.596;11.070;2023-02-15T16:03:16;15.40;;;11.67;;
15358;SDS011;7779;49.596;11.070;2023-02-15T16:05:51;15.20;;;10.97;;
15358;SDS011;7779;49.596;11.070;2023-02-15T16:08:36;16.50;;;12.00;;
15358;SDS011;7779;49.596;11.070;2023-02-15T16:11:13;15.63;;;11.30;;
15358;SDS011;7779;49.596;11.070;2023-02-15T16:13:47;16.23;;;11.97;;
15358;SDS011;7779;49.596;11.070;2023-02-15T16:16:13;17.33;;;12.43;;
15358;SDS011;7779;49.596;11.070;2023-02-15T16:18:49;16.17;;;11.70;;
15358;SDS011;7779;49.596;11.070;2023-02-15T16:21:21;16.10;;;11.63;;
15358;SDS011;7779;49.596;11.070;2023-02-15T16:24:01;16.13;;;11.37;;
15358;SDS011;7779;49.596;11.070;2023-02-15T16:29:18;15.40;;;11.63;;
15358;SDS011;7779;49.596;11.070;2023-02-15T16:31:59;16.70;;;11.67;;
15358;SDS011;7779;49.596;11.070;2023-02-15T16:34:28;16.17;;;11.33;;
15358;SDS011;7779;49.596;11.070;2023-02-15T16:37:16;16.47;;;12.03;;
15358;SDS011;7779;49.596;11.070;2023-02-15T16:39:48;17.43;;;11.90;;
15358;SDS011;7779;49.596;11.070;2023-02-15T16:42:15;15.53;;;11.47;;
15358;SDS011;7779;49.596;11.070;2023-02-15T16:44:43;16.33;;;11.57;;
15358;SDS011;7779;49.596;11.070;2023-02-15T16:47:24;18.53;;;12.13;;
15358;SDS011;7779;49.596;11.070;2023-02-15T16:49:55;15.90;;;11.77;;
15358;SDS011;7779;49.596;11.070;2023-02-15T16:52:27;18.63;;;12.23;;
15358;SDS011;7779;49.596;11.070;2023-02-15T16:54:55;20.57;;;14.07;;
15358;SDS011;7779;49.596;11.070;2023-02-15T16:57:25;22.17;;;13.77;;
15358;SDS011;7779;49.596;11.070;2023-02-15T17:00:00;22.33;;;14.57;;
15358;SDS011;7779;49.596;11.070;2023-02-15T17:02:33;19.93;;;12.93;;
15358;SDS011;7779;49.596;11.070;2023-02-15T17:07:41;18.67;;;13.50;;
15358;SDS011;7779;49.596;11.070;2023-02-15T17:13:09;21.23;;;13.17;;
15358;SDS011;7779;49.596;11.070;2023-02-15T17:15:43;16.53;;;12.50;;
15358;SDS011;7779;49.596;11.070;2023-02-15T17:18:33;17.83;;;11.20;;
15358;SDS011;7779;49.596;11.070;2023-02-15T17:21:19;16.43;;;11.17;;
15358;SDS011;7779;49.596;11.070;2023-02-15T17:24:02;20.07;;;13.07;;
15358;SDS011;7779;49.596;11.070;2023-02-15T17:26:30;15.63;;;10.90;;
15358;SDS011;7779;49.596;11.070;2023-02-15T17:31:54;19.43;;;12.73;;
15358;SDS011;7779;49.596;11.070;2023-02-15T17:34:41;27.93;;;15.07;;
15358;SDS011;7779;49.596;11.070;2023-02-15T17:40:10;19.73;;;12.50;;
15358;SDS011;7779;49.596;11.070;2023-02-15T17:42:49;19.87;;;13.73;;
15358;SDS011;7779;49.596;11.070;2023-02-15T17:45:15;20.60;;;13.07;;
15358;SDS011;7779;49.596;11.070;2023-02-15T17:47:42;19.40;;;13.33;;
15358;SDS011;7779;49.596;11.070;2023-02-15T17:50:22;14.70;;;11.73;;
15358;SDS011;7779;49.596;11.070;2023-02-15T17:52:51;15.67;;;11.23;;
15358;SDS011;7779;49.596;11.070;2023-02-15T17:55:20;16.27;;;11.93;;
15358;SDS011;7779;49.596;11.070;2023-02-15T17:57:59;17.57;;;12.33;;
15358;SDS011;7779;49.596;11.070;2023-02-15T18:00:28;15.93;;;11.00;;
15358;SDS011;7779;49.596;11.070;2023-02-15T18:03:18;15.20;;;11.03;;
15358;SDS011;7779;49.596;11.070;2023-02-15T18:06:03;16.07;;;11.13;;
15358;SDS011;7779;49.596;11.070;2023-02-15T18:08:48;13.07;;;10.17;;
15358;SDS011;7779;49.596;11.070;2023-02-15T18:11:32;14.43;;;9.57;;
15358;SDS011;7779;49.596;11.070;2023-02-15T18:13:58;10.87;;;8.37;;
15358;SDS011;7779;49.596;11.070;2023-02-15T18:16:32;12.00;;;9.27;;
15358;SDS011;7779;49.596;11.070;2023-02-15T18:19:04;13.20;;;9.13;;
15358;SDS011;7779;49.596;11.070;2023-02-15T18:21:35;15.63;;;11.07;;
15358;SDS011;7779;49.596;11.070;2023-02-15T18:24:01;13.43;;;10.33;;
15358;SDS011;7779;49.596;11.070;2023-02-15T18:26:27;13.17;;;9.17;;
15358;SDS011;7779;49.596;11.070;2023-02-15T18:28:53;11.87;;;8.80;;
15358;SDS011;7779;49.596;11.070;2023-02-15T18:31:20;12.30;;;9.07;;
15358;SDS011;7779;49.596;11.070;2023-02-15T18:33:49;11.27;;;8.07;;
15358;SDS011;7779;49.596;11.070;2023-02-15T18:36:25;10.87;;;9.23;;
15358;SDS011;7779;49.596;11.070;2023-02-15T18:38:56;10.83;;;8.47;;